createdAt,value
2023-02-10T00:02:16.337Z,38.87
2023-02-10T00:04:42.895Z,42.03
2023-02-10T00:07:09.420Z,38.60
2023-02-10T00:09:36.055Z,40.47
2023-02-10T00:12:03.250Z,39.77
2023-02-10T00:14:31.140Z,38.83
2023-02-10T00:16:58.423Z,36.63
2023-02-10T00:19:27.071Z,32.87
2023-02-10T00:21:53.868Z,41.13
2023-02-10T00:24:21.223Z,38.00
2023-02-10T00:26:48.052Z,37.00
2023-02-10T00:29:14.877Z,40.93
2023-02-10T00:31:41.886Z,37.03
2023-02-10T00:34:11.807Z,38.60
2023-02-10T00:36:38.702Z,35.13
2023-02-10T00:39:05.455Z,36.83
2023-02-10T00:41:31.994Z,41.57
2023-02-10T00:43:58.463Z,38.80
2023-02-10T00:46:25.021Z,40.53
2023-02-10T00:48:51.724Z,39.37
2023-02-10T00:51:18.539Z,40.17
2023-02-10T00:53:45.053Z,43.73
2023-02-10T00:56:11.729Z,37.23
2023-02-10T00:58:38.409Z,39.43
2023-02-10T01:01:05.637Z,35.13
2023-02-10T01:03:32.492Z,38.33
2023-02-10T01:05:58.964Z,39.90
2023-02-10T01:08:25.600Z,36.33
2023-02-10T01:11:02.710Z,42.73
2023-02-10T01:13:29.842Z,38.63
2023-02-10T01:15:56.361Z,34.97
2023-02-10T01:18:23.117Z,38.80
2023-02-10T01:20:49.577Z,39.67
2023-02-10T01:23:16.093Z,38.70
2023-02-10T01:25:42.538Z,38.60
2023-02-10T01:28:10.155Z,39.57
2023-02-10T01:30:37.046Z,42.67
2023-02-10T01:33:03.917Z,37.20
2023-02-10T01:35:30.886Z,40.37
2023-02-10T01:37:57.918Z,37.23
2023-02-10T01:40:27.645Z,42.73
2023-02-10T01:42:54.241Z,40.63
2023-02-10T01:45:39.252Z,36.80
2023-02-10T01:48:06.204Z,39.50
2023-02-10T01:50:39.250Z,36.93
2023-02-10T01:53:06.831Z,39.87
2023-02-10T01:55:35.794Z,37.53
2023-02-10T01:58:07.901Z,41.23
2023-02-10T02:00:34.986Z,37.17
2023-02-10T02:03:02.362Z,39.67
2023-02-10T02:05:40.246Z,36.93
2023-02-10T02:08:19.600Z,37.10
2023-02-10T02:11:07.601Z,37.70
2023-02-10T02:13:48.845Z,38.93
2023-02-10T02:16:32.327Z,37.77
2023-02-10T02:19:37.215Z,40.83
2023-02-10T02:22:54.315Z,38.50
2023-02-10T02:25:39.126Z,36.97
2023-02-10T02:28:15.335Z,37.27
2023-02-10T02:30:56.944Z,40.57
2023-02-10T02:33:23.830Z,45.17
2023-02-10T02:35:59.182Z,37.27
2023-02-10T02:38:25.747Z,36.07
2023-02-10T02:40:52.261Z,34.40
2023-02-10T02:43:18.878Z,38.53
2023-02-10T02:45:53.723Z,45.27
2023-02-10T02:48:35.276Z,38.10
2023-02-10T02:51:39.570Z,42.50
2023-02-10T02:54:20.406Z,38.30
2023-02-10T02:56:51.342Z,38.77
2023-02-10T02:59:34.022Z,37.53
2023-02-10T03:02:04.098Z,41.37
2023-02-10T03:04:34.802Z,39.03
2023-02-10T03:07:02.361Z,39.93
2023-02-10T03:09:29.056Z,40.13
2023-02-10T03:11:55.673Z,37.47
2023-02-10T03:14:22.710Z,43.00
2023-02-10T03:16:49.157Z,38.67
2023-02-10T03:19:15.965Z,41.70
2023-02-10T03:21:42.621Z,35.50
2023-02-10T03:24:09.944Z,37.67
2023-02-10T03:26:37.391Z,40.60
2023-02-10T03:29:04.399Z,41.97
2023-02-10T03:31:31.035Z,38.17
2023-02-10T03:33:57.569Z,39.90
2023-02-10T03:36:24.431Z,42.67
2023-02-10T03:38:50.930Z,37.67
2023-02-10T03:41:17.362Z,35.83
2023-02-10T03:43:43.886Z,40.03
2023-02-10T03:46:11.026Z,40.07
2023-02-10T03:48:38.198Z,42.13
2023-02-10T03:51:06.477Z,40.10
2023-02-10T03:53:33.107Z,43.37
2023-02-10T03:56:00.094Z,34.97
2023-02-10T03:58:26.642Z,40.33
2023-02-10T04:00:53.209Z,36.10
2023-02-10T04:03:20.031Z,36.50
2023-02-10T04:05:46.956Z,38.40
2023-02-10T04:08:13.644Z,34.40
2023-02-10T04:10:40.248Z,35.80
2023-02-10T04:13:06.696Z,35.20
2023-02-10T04:15:33.292Z,38.17
2023-02-10T04:17:59.728Z,37.80
2023-02-10T04:20:26.250Z,40.90
2023-02-10T04:22:52.743Z,40.50
2023-02-10T04:25:19.345Z,35.30
2023-02-10T04:27:46.043Z,39.40
2023-02-10T04:30:13.140Z,41.83
2023-02-10T04:32:39.583Z,38.63
2023-02-10T04:35:06.295Z,36.43
2023-02-10T04:37:32.831Z,35.20
2023-02-10T04:39:59.276Z,35.73
2023-02-10T04:42:30.916Z,40.43
2023-02-10T04:45:00.715Z,38.33
2023-02-10T04:47:27.926Z,35.47
2023-02-10T04:49:54.642Z,43.97
2023-02-10T04:52:21.124Z,39.07
2023-02-10T04:54:47.722Z,35.77
2023-02-10T04:57:14.146Z,40.03
2023-02-10T04:59:40.635Z,39.47
2023-02-10T05:02:07.148Z,40.13
2023-02-10T05:04:33.626Z,38.20
2023-02-10T05:07:00.196Z,36.37
2023-02-10T05:09:28.172Z,38.43
2023-02-10T05:11:54.855Z,34.83
2023-02-10T05:14:21.427Z,39.00
2023-02-10T05:16:48.078Z,35.40
2023-02-10T05:19:14.611Z,40.57
2023-02-10T05:21:41.127Z,39.53
2023-02-10T05:24:07.643Z,38.80
2023-02-10T05:26:34.213Z,39.17
2023-02-10T05:29:00.824Z,40.37
2023-02-10T05:31:27.435Z,39.57
2023-02-10T05:33:54.513Z,38.93
2023-02-10T05:36:21.910Z,36.30
2023-02-10T05:39:07.365Z,42.63
2023-02-10T05:41:35.961Z,43.50
2023-02-10T05:44:02.919Z,43.37
2023-02-10T05:46:29.600Z,35.93
2023-02-10T05:48:56.165Z,37.30
2023-02-10T05:51:22.653Z,37.90
2023-02-10T05:53:49.112Z,37.10
2023-02-10T05:56:15.603Z,38.27
2023-02-10T05:58:42.033Z,36.40
2023-02-10T06:01:09.979Z,43.53
2023-02-10T06:03:36.721Z,38.90
2023-02-10T06:06:03.678Z,41.87
2023-02-10T06:08:30.222Z,42.77
2023-02-10T06:10:56.767Z,39.17
2023-02-10T06:13:23.246Z,40.70
2023-02-10T06:15:49.995Z,46.73
2023-02-10T06:18:16.930Z,44.23
2023-02-10T06:20:46.472Z,39.67
2023-02-10T06:23:13.973Z,42.50
2023-02-10T06:25:40.565Z,42.93
2023-02-10T06:28:07.513Z,48.27
2023-02-10T06:30:34.176Z,47.07
2023-02-10T06:33:00.820Z,54.13
2023-02-10T06:35:27.375Z,56.63
2023-02-10T06:37:54.565Z,54.40
2023-02-10T06:40:21.340Z,52.80
2023-02-10T06:42:48.762Z,58.00
2023-02-10T06:45:15.530Z,45.97
2023-02-10T06:47:42.010Z,48.90
2023-02-10T06:50:09.870Z,42.37
2023-02-10T06:52:38.968Z,43.70
2023-02-10T06:55:08.803Z,54.97
2023-02-10T06:57:37.008Z,45.70
2023-02-10T07:00:05.577Z,46.07
2023-02-10T07:02:32.496Z,45.03
2023-02-10T07:04:59.357Z,50.57
2023-02-10T07:07:25.992Z,41.90
2023-02-10T07:09:54.154Z,41.53
2023-02-10T07:12:21.675Z,42.43
2023-02-10T07:14:48.446Z,48.93
2023-02-10T07:17:15.014Z,49.07
2023-02-10T07:19:41.916Z,38.70
2023-02-10T07:22:08.533Z,42.93
2023-02-10T07:24:35.056Z,37.20
2023-02-10T07:27:02.477Z,41.00
2023-02-10T07:29:29.477Z,43.90
2023-02-10T07:31:59.331Z,48.30
2023-02-10T07:34:26.765Z,47.33
2023-02-10T07:36:55.071Z,41.43
2023-02-10T07:39:22.470Z,46.60
2023-02-10T07:41:49.110Z,45.07
2023-02-10T07:44:15.991Z,39.10
2023-02-10T07:46:42.926Z,49.23
2023-02-10T07:49:15.377Z,53.13
2023-02-10T07:51:43.556Z,44.40
2023-02-10T07:54:11.087Z,45.47
2023-02-10T07:56:38.993Z,49.20
2023-02-10T07:59:07.933Z,48.83
2023-02-10T08:01:38.730Z,48.57
2023-02-10T08:04:05.565Z,46.67
2023-02-10T08:06:32.260Z,49.10
2023-02-10T08:08:58.968Z,46.10
2023-02-10T08:11:25.611Z,43.47
2023-02-10T08:13:52.273Z,45.30
2023-02-10T08:16:19.045Z,45.00
2023-02-10T08:18:45.756Z,48.37
2023-02-10T08:21:15.245Z,43.13
2023-02-10T08:23:41.886Z,48.57
2023-02-10T08:26:10.969Z,45.10
2023-02-10T08:28:38.773Z,54.57
2023-02-10T08:31:07.524Z,50.27
2023-02-10T08:33:45.933Z,49.70
2023-02-10T08:36:15.425Z,51.37
2023-02-10T08:38:42.139Z,50.00
2023-02-10T08:41:08.626Z,51.77
2023-02-10T08:43:35.446Z,48.13
2023-02-10T08:46:02.496Z,58.20
2023-02-10T08:48:29.429Z,53.80
2023-02-10T08:50:55.926Z,51.03
2023-02-10T08:53:22.425Z,50.50
2023-02-10T08:56:00.735Z,52.83
2023-02-10T08:58:28.086Z,49.40
2023-02-10T09:00:54.629Z,49.03
2023-02-10T09:03:21.944Z,54.63
2023-02-10T09:05:49.872Z,51.17
2023-02-10T09:08:17.969Z,50.90
2023-02-10T09:10:45.946Z,53.17
2023-02-10T09:13:13.431Z,49.27
2023-02-10T09:15:41.322Z,51.67
2023-02-10T09:18:08.580Z,50.73
2023-02-10T09:20:35.752Z,54.17
2023-02-10T09:23:02.372Z,53.50
2023-02-10T09:25:29.234Z,54.83
2023-02-10T09:27:58.433Z,55.30
2023-02-10T09:30:28.336Z,51.30
2023-02-10T09:32:55.383Z,55.10
2023-02-10T09:35:22.160Z,50.90
2023-02-10T09:37:48.926Z,59.37
2023-02-10T09:40:24.460Z,68.33
2023-02-10T09:42:51.130Z,71.47
2023-02-10T09:45:20.390Z,69.60
2023-02-10T09:47:51.759Z,53.47
2023-02-10T09:50:30.095Z,57.67
2023-02-10T09:53:03.510Z,62.17
2023-02-10T09:55:42.774Z,56.67
2023-02-10T09:58:33.754Z,70.67
2023-02-10T10:01:10.816Z,63.53
2023-02-10T10:03:42.913Z,54.17
2023-02-10T10:06:21.067Z,57.77
2023-02-10T10:09:08.946Z,57.43
2023-02-10T10:11:42.457Z,55.37
2023-02-10T10:14:21.350Z,48.20
2023-02-10T10:17:26.657Z,52.50
2023-02-10T10:20:34.084Z,58.83
2023-02-10T10:23:03.678Z,58.33
2023-02-10T10:25:55.051Z,55.73
2023-02-10T10:28:27.512Z,57.43
2023-02-10T10:31:09.783Z,48.90
2023-02-10T10:33:44.359Z,54.30
2023-02-10T10:36:20.197Z,57.73
2023-02-10T10:38:51.114Z,50.13
2023-02-10T10:41:17.863Z,51.70
2023-02-10T10:43:48.429Z,53.07
2023-02-10T10:46:31.164Z,55.40
2023-02-10T10:48:58.118Z,51.73
2023-02-10T10:51:24.897Z,53.20
2023-02-10T10:53:57.193Z,54.53
2023-02-10T10:56:48.699Z,54.33
2023-02-10T10:59:22.847Z,57.13
2023-02-10T11:01:50.229Z,56.37
2023-02-10T11:04:19.979Z,52.47
2023-02-10T11:06:50.847Z,56.97
2023-02-10T11:09:40.523Z,56.93
2023-02-10T11:12:16.523Z,57.47
2023-02-10T11:14:48.705Z,56.27
2023-02-10T11:17:33.853Z,55.30
2023-02-10T11:20:02.720Z,52.53
2023-02-10T11:22:29.402Z,51.33
2023-02-10T11:25:01.846Z,59.30
2023-02-10T11:27:28.413Z,58.00
2023-02-10T11:29:59.018Z,56.03
2023-02-10T11:32:31.414Z,54.33
2023-02-10T11:35:00.417Z,59.13
2023-02-10T11:37:39.348Z,52.70
2023-02-10T11:40:22.080Z,57.70
2023-02-10T11:42:50.655Z,57.60
2023-02-10T11:45:26.594Z,59.87
2023-02-10T11:48:17.480Z,63.00
2023-02-10T11:50:44.132Z,52.90
2023-02-10T11:53:26.256Z,54.07
2023-02-10T11:56:02.398Z,60.53
2023-02-10T11:58:56.492Z,57.83
2023-02-10T12:01:53.727Z,61.17
2023-02-10T12:04:22.979Z,58.13
2023-02-10T12:07:00.229Z,54.77
2023-02-10T12:09:55.820Z,50.20
2023-02-10T12:12:35.415Z,63.33
2023-02-10T12:15:04.821Z,56.93
2023-02-10T12:18:06.964Z,54.27
2023-02-10T12:20:49.950Z,58.90
2023-02-10T12:23:35.140Z,55.27
2023-02-10T12:26:16.485Z,58.60
2023-02-10T12:28:45.447Z,55.27
2023-02-10T12:31:35.991Z,56.07
2023-02-10T12:34:21.961Z,53.27
2023-02-10T12:37:10.163Z,58.87
2023-02-10T12:39:40.608Z,57.57
2023-02-10T12:42:14.554Z,58.90
2023-02-10T12:45:43.808Z,50.10
2023-02-10T12:48:33.991Z,54.60
2023-02-10T12:51:25.804Z,65.47
2023-02-10T12:53:59.147Z,55.37
2023-02-10T12:56:34.486Z,54.83
2023-02-10T12:59:16.762Z,56.07
2023-02-10T13:01:56.409Z,55.40
2023-02-10T13:04:28.571Z,55.83
2023-02-10T13:07:04.222Z,61.37
2023-02-10T13:09:48.419Z,58.73
2023-02-10T13:12:29.047Z,57.07
2023-02-10T13:15:16.216Z,60.53
2023-02-10T13:17:46.436Z,57.87
2023-02-10T13:20:37.533Z,59.67
2023-02-10T13:23:18.646Z,58.53
2023-02-10T13:26:16.776Z,64.40
2023-02-10T13:29:18.396Z,60.23
2023-02-10T13:32:05.811Z,58.37
2023-02-10T13:34:34.597Z,65.07
2023-02-10T13:37:13.615Z,60.07
2023-02-10T13:39:40.339Z,62.80
2023-02-10T13:42:15.111Z,64.97
2023-02-10T13:44:42.238Z,67.77
2023-02-10T13:47:08.709Z,59.53
2023-02-10T13:49:37.893Z,63.60
2023-02-10T13:52:16.400Z,72.80
2023-02-10T13:55:02.222Z,65.83
2023-02-10T13:57:34.570Z,61.03
2023-02-10T14:00:15.210Z,56.53
2023-02-10T14:02:41.807Z,65.27
2023-02-10T14:05:56.074Z,69.07
2023-02-10T14:08:59.684Z,65.50
2023-02-10T14:11:36.737Z,60.20
2023-02-10T14:14:16.849Z,79.60
2023-02-10T14:16:44.992Z,75.23
2023-02-10T14:19:24.244Z,74.13
2023-02-10T14:21:51.013Z,68.43
2023-02-10T14:24:27.187Z,68.67
2023-02-10T14:26:58.420Z,75.40
2023-02-10T14:29:26.669Z,74.80
2023-02-10T14:31:56.967Z,67.87
2023-02-10T14:34:28.856Z,77.73
2023-02-10T14:36:57.979Z,78.00
2023-02-10T14:39:26.501Z,70.77
2023-02-10T14:41:53.397Z,73.40
2023-02-10T14:44:26.656Z,86.27
2023-02-10T14:46:54.635Z,79.10
2023-02-10T14:49:22.174Z,74.30
2023-02-10T14:51:50.128Z,79.17
2023-02-10T14:54:23.001Z,77.40
2023-02-10T14:56:56.859Z,78.03
2023-02-10T14:59:30.779Z,87.23
2023-02-10T15:02:15.480Z,82.03
2023-02-10T15:04:45.464Z,69.27
2023-02-10T15:07:18.631Z,87.93
2023-02-10T15:09:46.746Z,81.47
2023-02-10T15:12:17.830Z,82.23
2023-02-10T15:15:01.860Z,81.00
2023-02-10T15:17:36.329Z,79.53
2023-02-10T15:20:30.620Z,78.87
2023-02-10T15:22:57.421Z,79.80
2023-02-10T15:25:27.020Z,77.23
2023-02-10T15:27:55.488Z,75.77
2023-02-10T15:30:24.723Z,82.60
2023-02-10T15:32:56.713Z,77.13
2023-02-10T15:35:23.868Z,79.50
2023-02-10T15:37:51.803Z,84.00
2023-02-10T15:40:24.898Z,78.47
2023-02-10T15:42:59.073Z,82.20
2023-02-10T15:45:26.205Z,87.47
2023-02-10T15:48:02.164Z,89.10
2023-02-10T15:50:30.541Z,84.40
2023-02-10T15:52:57.280Z,87.40
2023-02-10T15:55:32.893Z,81.80
2023-02-10T15:57:59.446Z,85.43
2023-02-10T16:00:32.413Z,84.57
2023-02-10T16:03:00.031Z,88.37
2023-02-10T16:05:26.855Z,89.03
2023-02-10T16:07:53.684Z,89.17
2023-02-10T16:10:25.190Z,90.97
2023-02-10T16:12:52.477Z,98.23
2023-02-10T16:15:21.513Z,92.97
2023-02-10T16:17:50.924Z,93.03
2023-02-10T16:20:20.852Z,97.37
2023-02-10T16:22:48.626Z,101.43
2023-02-10T16:25:16.260Z,93.87
2023-02-10T16:27:43.874Z,96.40
2023-02-10T16:30:19.046Z,97.07
2023-02-10T16:32:46.064Z,108.43
2023-02-10T16:35:15.397Z,106.67
2023-02-10T16:37:42.202Z,102.63
2023-02-10T16:40:09.091Z,105.50
2023-02-10T16:42:35.618Z,107.53
2023-02-10T16:45:02.204Z,112.93
2023-02-10T16:47:28.721Z,100.63
2023-02-10T16:49:55.223Z,108.37
2023-02-10T16:52:23.736Z,97.73
2023-02-10T16:54:51.056Z,112.90
2023-02-10T16:57:18.792Z,101.20
2023-02-10T16:59:45.301Z,101.20
2023-02-10T17:02:11.966Z,94.73
2023-02-10T17:04:38.553Z,93.63
2023-02-10T17:07:05.240Z,110.07
2023-02-10T17:09:32.970Z,101.83
2023-02-10T17:11:59.643Z,98.53
2023-02-10T17:14:26.443Z,103.00
2023-02-10T17:16:53.214Z,102.17
2023-02-10T17:19:23.058Z,100.30
2023-02-10T17:21:49.916Z,104.00
2023-02-10T17:24:16.474Z,99.87
2023-02-10T17:26:47.970Z,97.83
2023-02-10T17:29:15.840Z,100.63
2023-02-10T17:31:43.505Z,103.37
2023-02-10T17:34:10.747Z,101.90
2023-02-10T17:36:39.683Z,88.20
2023-02-10T17:39:23.159Z,104.53
2023-02-10T17:41:51.488Z,96.03
2023-02-10T17:44:18.837Z,98.23
2023-02-10T17:46:48.490Z,98.40
2023-02-10T17:49:16.305Z,104.20
2023-02-10T17:51:43.378Z,113.30
2023-02-10T17:54:09.963Z,103.93
2023-02-10T17:56:36.514Z,94.30
2023-02-10T17:59:04.585Z,104.27
2023-02-10T18:01:34.412Z,106.77
2023-02-10T18:04:01.070Z,117.33
2023-02-10T18:06:29.476Z,108.97
2023-02-10T18:08:59.611Z,118.57
2023-02-10T18:11:30.235Z,105.17
2023-02-10T18:13:56.742Z,113.17
2023-02-10T18:16:23.476Z,105.93
2023-02-10T18:18:50.433Z,106.20
2023-02-10T18:21:21.229Z,101.60
2023-02-10T18:23:48.566Z,115.33
2023-02-10T18:26:15.819Z,121.97
2023-02-10T18:28:42.615Z,115.23
2023-02-10T18:31:15.251Z,119.03
2023-02-10T18:33:42.343Z,121.67
2023-02-10T18:36:10.606Z,113.90
2023-02-10T18:38:37.216Z,108.27
2023-02-10T18:41:04.118Z,119.10
2023-02-10T18:43:30.626Z,120.70
2023-02-10T18:45:57.165Z,115.23
2023-02-10T18:48:23.830Z,112.10
2023-02-10T18:50:50.777Z,115.17
2023-02-10T18:53:18.617Z,118.90
2023-02-10T18:55:46.487Z,129.50
2023-02-10T18:58:14.633Z,117.13
2023-02-10T19:00:41.901Z,119.67
2023-02-10T19:03:09.370Z,115.43
2023-02-10T19:05:36.387Z,116.97
2023-02-10T19:08:02.936Z,135.60
2023-02-10T19:10:29.840Z,120.70
2023-02-10T19:12:56.375Z,130.33
2023-02-10T19:15:22.896Z,139.90
2023-02-10T19:17:49.380Z,149.07
2023-02-10T19:20:15.987Z,142.00
2023-02-10T19:22:42.526Z,115.37
2023-02-10T19:25:09.407Z,125.73
2023-02-10T19:27:36.057Z,133.60
2023-02-10T19:30:03.137Z,140.67
2023-02-10T19:32:29.770Z,158.63
2023-02-10T19:34:56.226Z,157.80
2023-02-10T19:37:23.632Z,154.23
2023-02-10T19:39:50.271Z,134.17
2023-02-10T19:42:17.081Z,133.83
2023-02-10T19:44:43.655Z,124.53
2023-02-10T19:47:10.382Z,133.37
2023-02-10T19:49:36.985Z,137.67
2023-02-10T19:52:03.622Z,112.47
2023-02-10T19:54:30.564Z,126.10
2023-02-10T19:56:57.584Z,123.63
2023-02-10T19:59:24.156Z,118.30
2023-02-10T20:01:50.837Z,123.40
2023-02-10T20:04:17.518Z,107.50
2023-02-10T20:06:45.679Z,122.83
2023-02-10T20:09:13.178Z,124.47
2023-02-10T20:11:40.569Z,119.50
2023-02-10T20:14:09.722Z,117.90
2023-02-10T20:16:41.447Z,118.70
2023-02-10T20:19:08.637Z,125.43
2023-02-10T20:21:35.137Z,123.93
2023-02-10T20:24:01.638Z,132.33
2023-02-10T20:26:28.415Z,119.93
2023-02-10T20:28:54.943Z,112.13
2023-02-10T20:31:22.111Z,128.10
2023-02-10T20:33:48.833Z,133.47
2023-02-10T20:36:17.517Z,129.97
2023-02-10T20:38:46.315Z,129.90
2023-02-10T20:41:17.965Z,133.93
2023-02-10T20:43:46.722Z,140.60
2023-02-10T20:46:14.282Z,140.00
2023-02-10T20:48:40.800Z,135.83
2023-02-10T20:51:08.880Z,108.10
2023-02-10T20:53:38.334Z,119.67
2023-02-10T20:56:06.099Z,130.07
2023-02-10T20:58:32.613Z,119.27
2023-02-10T21:01:04.720Z,118.57
2023-02-10T21:03:31.470Z,116.87
2023-02-10T21:06:14.444Z,107.70
2023-02-10T21:08:41.909Z,122.47
2023-02-10T21:11:09.911Z,111.00
2023-02-10T21:13:39.015Z,122.73
2023-02-10T21:16:07.154Z,125.77
2023-02-10T21:18:33.669Z,129.90
2023-02-10T21:21:01.960Z,134.10
2023-02-10T21:23:29.016Z,119.60
2023-02-10T21:25:56.131Z,113.87
2023-02-10T21:28:22.996Z,117.20
2023-02-10T21:30:49.572Z,107.20
2023-02-10T21:33:17.423Z,115.70
2023-02-10T21:35:49.214Z,104.97
2023-02-10T21:38:16.386Z,107.17
2023-02-10T21:40:43.241Z,105.07
2023-02-10T21:43:09.847Z,104.73
2023-02-10T21:45:36.630Z,104.27
2023-02-10T21:48:03.478Z,110.20
2023-02-10T21:50:29.919Z,94.33
2023-02-10T21:52:56.470Z,99.33
2023-02-10T21:55:22.952Z,101.57
2023-02-10T21:57:49.512Z,89.97
2023-02-10T22:00:16.361Z,91.60
2023-02-10T22:02:43.290Z,90.20
2023-02-10T22:05:10.105Z,94.97
2023-02-10T22:07:37.165Z,96.70
2023-02-10T22:10:05.338Z,95.33
2023-02-10T22:12:32.720Z,90.07
2023-02-10T22:14:59.221Z,90.53
2023-02-10T22:17:25.737Z,101.77
2023-02-10T22:19:52.211Z,88.37
2023-02-10T22:22:18.701Z,91.97
2023-02-10T22:24:45.842Z,101.97
2023-02-10T22:27:12.761Z,96.10
2023-02-10T22:29:39.253Z,84.53
2023-02-10T22:32:05.768Z,92.03
2023-02-10T22:34:32.308Z,91.03
2023-02-10T22:36:59.186Z,90.57
2023-02-10T22:39:25.691Z,102.63
2023-02-10T22:41:52.436Z,106.37
2023-02-10T22:44:18.897Z,110.37
2023-02-10T22:46:45.469Z,97.17
2023-02-10T22:49:13.972Z,98.57
2023-02-10T22:51:41.301Z,93.03
2023-02-10T22:54:10.151Z,89.27
2023-02-10T22:56:38.268Z,90.93
2023-02-10T22:59:06.451Z,92.70
2023-02-10T23:01:35.705Z,108.20
2023-02-10T23:04:03.304Z,102.93
2023-02-10T23:06:29.894Z,98.33
2023-02-10T23:08:56.439Z,102.67
2023-02-10T23:11:27.411Z,90.07
2023-02-10T23:13:53.889Z,86.70
2023-02-10T23:16:20.497Z,78.47
2023-02-10T23:18:47.307Z,86.60
2023-02-10T23:21:18.083Z,78.43
2023-02-10T23:23:44.689Z,75.17
2023-02-10T23:26:11.580Z,73.13
2023-02-10T23:28:38.551Z,90.63
2023-02-10T23:31:15.813Z,80.80
2023-02-10T23:33:42.741Z,78.57
2023-02-10T23:36:09.575Z,75.13
2023-02-10T23:38:36.388Z,73.37
2023-02-10T23:41:03.390Z,69.30
2023-02-10T23:43:29.907Z,81.93
2023-02-10T23:45:56.462Z,81.17
2023-02-10T23:48:23.232Z,70.83
2023-02-10T23:50:49.708Z,78.37
2023-02-10T23:53:16.367Z,75.70
2023-02-10T23:55:42.843Z,79.93
2023-02-10T23:58:10.649Z,75.00
